Time;durP1;ratioP1;P1;durP2;ratioP2;P2;SDS_P1;SDS_P2;PMS_P1;PMS_P2;Temp;Humidity;BMP_temperature;BMP_pressure;BME280_temperature;BME280_humidity;BME280_pressure;Samples;Min_cycle;Max_cycle;Signal;HPM_P1;HPM_P2
2021/01/24 00:00:01;;;;;;;;;16.00;16.00;;;;;;;;4984990;28;8972;-82
2021/01/24 00:02:29;;;;;;;;;13.67;13.67;;;;;;;;5004444;28;8840;-80
2021/01/24 00:04:56;;;;;;;;;15.67;15.67;;;;;;;;5002482;28;8868;-83
2021/01/24 00:07:22;;;;;;;;;14.33;14.33;;;;;;;;5003421;28;8871;-75
2021/01/24 00:09:49;;;;;;;;;16.00;16.00;;;;;;;;5004236;28;8876;-81
2021/01/24 00:12:16;;;;;;;;;16.00;16.00;;;;;;;;4997270;28;8890;-81
2021/01/24 00:14:42;;;;;;;;;17.33;15.33;;;;;;;;5000583;28;8890;-78
2021/01/24 00:17:09;;;;;;;;;16.00;16.00;;;;;;;;5005402;28;9002;-79
2021/01/24 00:19:37;;;;;;;;;18.00;17.33;;;;;;;;4997630;28;9715;-81
2021/01/24 00:22:04;;;;;;;;;15.00;15.00;;;;;;;;5009672;28;8892;-82
2021/01/24 00:24:31;;;;;;;;;19.00;19.00;;;;;;;;5008035;28;8880;-80
2021/01/24 00:26:57;;;;;;;;;18.33;16.33;;;;;;;;5004911;28;8888;-83
2021/01/24 00:29:24;;;;;;;;;13.00;13.00;;;;;;;;5011624;28;8884;-81
2021/01/24 00:31:51;;;;;;;;;21.33;21.33;;;;;;;;5003983;28;8808;-83
2021/01/24 00:34:18;;;;;;;;;18.00;18.00;;;;;;;;5004129;28;8899;-81
2021/01/24 00:36:46;;;;;;;;;19.00;19.00;;;;;;;;4997964;28;8908;-80
2021/01/24 00:39:13;;;;;;;;;12.00;12.00;;;;;;;;5004329;28;8876;-84
2021/01/24 00:41:40;;;;;;;;;18.67;18.67;;;;;;;;5003360;28;8891;-80
2021/01/24 00:44:07;;;;;;;;;18.67;18.67;;;;;;;;5002874;28;8883;-78
2021/01/24 00:46:34;;;;;;;;;25.67;25.67;;;;;;;;5006331;28;8918;-81
2021/01/24 00:49:01;;;;;;;;;20.33;20.33;;;;;;;;5010146;28;8934;-81
2021/01/24 00:51:27;;;;;;;;;21.33;21.33;;;;;;;;4986446;28;8891;-79
2021/01/24 00:53:55;;;;;;;;;21.67;21.67;;;;;;;;4985782;28;8864;-81
2021/01/24 00:56:22;;;;;;;;;15.67;15.67;;;;;;;;5006004;28;8957;-79
2021/01/24 00:58:49;;;;;;;;;21.67;21.67;;;;;;;;4981887;28;8907;-78
2021/01/24 01:01:16;;;;;;;;;20.33;20.33;;;;;;;;4981707;28;8867;-82
2021/01/24 01:03:42;;;;;;;;;17.67;17.67;;;;;;;;5003362;28;8859;-79
2021/01/24 01:06:09;;;;;;;;;18.67;18.67;;;;;;;;5004045;28;8891;-78
2021/01/24 01:08:36;;;;;;;;;14.33;14.33;;;;;;;;5004824;28;8864;-82
2021/01/24 01:11:04;;;;;;;;;22.00;20.33;;;;;;;;5002307;28;8895;-80
2021/01/24 01:13:31;;;;;;;;;21.67;21.67;;;;;;;;4985421;28;8976;-77
2021/01/24 01:16:01;;;;;;;;;18.67;18.67;;;;;;;;5002223;28;8871;-81
2021/01/24 01:18:28;;;;;;;;;18.00;18.00;;;;;;;;4980529;28;8888;-80
2021/01/24 01:20:55;;;;;;;;;22.67;21.00;;;;;;;;5003658;28;8892;-82
2021/01/24 01:23:22;;;;;;;;;17.67;17.67;;;;;;;;5003837;28;8984;-82
2021/01/24 01:25:51;;;;;;;;;14.33;14.33;;;;;;;;5004100;28;8864;-81
2021/01/24 01:28:20;;;;;;;;;16.67;16.67;;;;;;;;4978377;28;8864;-83
2021/01/24 01:30:47;;;;;;;;;15.33;15.33;;;;;;;;4998297;28;8824;-83
2021/01/24 01:33:14;;;;;;;;;15.00;15.00;;;;;;;;4996312;28;8949;-82
2021/01/24 01:35:42;;;;;;;;;19.00;19.00;;;;;;;;5005179;28;8907;-82
2021/01/24 01:38:09;;;;;;;;;18.00;18.00;;;;;;;;4999799;28;8878;-82
2021/01/24 01:40:36;;;;;;;;;19.00;18.33;;;;;;;;4997183;28;9668;-79
2021/01/24 01:43:03;;;;;;;;;18.00;18.00;;;;;;;;5003379;28;8867;-81
2021/01/24 01:45:31;;;;;;;;;19.00;19.00;;;;;;;;5004438;28;8937;-84
2021/01/24 01:47:58;;;;;;;;;13.67;13.67;;;;;;;;5003191;28;9003;-80
2021/01/24 01:50:26;;;;;;;;;18.00;18.00;;;;;;;;5002833;28;8888;-82
2021/01/24 01:52:52;;;;;;;;;15.33;15.33;;;;;;;;4988463;28;8938;-78
2021/01/24 01:55:19;;;;;;;;;16.00;16.00;;;;;;;;4989317;28;8872;-83
2021/01/24 01:57:46;;;;;;;;;16.00;16.00;;;;;;;;5003332;28;8890;-83
2021/01/24 02:00:14;;;;;;;;;15.67;15.67;;;;;;;;5005323;28;9673;-80
2021/01/24 02:02:49;;;;;;;;;16.33;16.33;;;;;;;;5005268;28;8876;-75
2021/01/24 02:05:23;;;;;;;;;9.00;6.00;;;;;;;;5007080;28;8860;-82
2021/01/24 02:07:56;;;;;;;;;15.33;15.33;;;;;;;;5005764;28;9012;-82
2021/01/24 02:10:29;;;;;;;;;16.00;16.00;;;;;;;;4989374;28;8915;-76
2021/01/24 02:13:01;;;;;;;;;13.00;13.00;;;;;;;;5004532;28;8868;-81
2021/01/24 02:15:30;;;;;;;;;10.00;10.00;;;;;;;;4987250;28;8895;-80
2021/01/24 02:18:02;;;;;;;;;12.33;12.33;;;;;;;;5007357;28;8871;-80
2021/01/24 02:20:37;;;;;;;;;18.33;16.67;;;;;;;;5005238;28;8891;-82
2021/01/24 02:23:05;;;;;;;;;10.00;10.00;;;;;;;;5006559;28;8884;-81
2021/01/24 02:25:39;;;;;;;;;16.00;16.00;;;;;;;;5003786;28;8903;-79
2021/01/24 02:28:16;;;;;;;;;13.67;13.67;;;;;;;;5006278;28;8891;-81
2021/01/24 02:30:44;;;;;;;;;7.67;7.67;;;;;;;;5006730;28;8812;-79
2021/01/24 02:33:14;;;;;;;;;13.00;13.00;;;;;;;;5004817;28;8904;-80
2021/01/24 02:35:43;;;;;;;;;6.33;6.33;;;;;;;;5007393;28;9862;-79
2021/01/24 02:38:10;;;;;;;;;19.67;19.67;;;;;;;;5000632;28;8882;-79
2021/01/24 02:40:39;;;;;;;;;12.33;12.33;;;;;;;;5005755;28;8860;-81
2021/01/24 02:43:08;;;;;;;;;11.33;11.33;;;;;;;;5004953;28;9650;-78
2021/01/24 02:45:36;;;;;;;;;15.00;15.00;;;;;;;;5004804;28;8903;-75
2021/01/24 02:48:06;;;;;;;;;10.00;10.00;;;;;;;;5003871;28;8949;-76
2021/01/24 02:50:33;;;;;;;;;9.00;9.00;;;;;;;;5003521;28;8915;-82
2021/01/24 02:53:01;;;;;;;;;13.00;13.00;;;;;;;;5004389;28;8861;-82
2021/01/24 02:55:28;;;;;;;;;13.00;13.00;;;;;;;;4982188;28;9745;-82
2021/01/24 02:57:56;;;;;;;;;10.00;10.00;;;;;;;;5008465;28;8946;-80
2021/01/24 03:00:25;;;;;;;;;16.00;15.00;;;;;;;;5004372;28;8851;-80
2021/01/24 03:02:52;;;;;;;;;15.00;15.00;;;;;;;;4987503;28;8884;-81
2021/01/24 03:05:20;;;;;;;;;15.00;15.00;;;;;;;;5004672;28;9602;-76
2021/01/24 03:07:47;;;;;;;;;17.33;15.67;;;;;;;;5005088;28;8888;-81
2021/01/24 03:10:15;;;;;;;;;14.67;14.67;;;;;;;;5006197;28;8863;-77
2021/01/24 03:12:48;;;;;;;;;12.67;12.67;;;;;;;;4996523;28;8890;-81
2021/01/24 03:15:19;;;;;;;;;15.67;15.67;;;;;;;;5006070;28;8942;-83
2021/01/24 03:17:47;;;;;;;;;15.67;14.33;;;;;;;;5004980;28;8883;-83
2021/01/24 03:20:15;;;;;;;;;16.67;16.67;;;;;;;;5006238;28;8887;-78
2021/01/24 03:22:44;;;;;;;;;13.00;12.00;;;;;;;;5004599;28;8880;-84
2021/01/24 03:25:11;;;;;;;;;13.00;13.00;;;;;;;;5005124;28;8929;-82
2021/01/24 03:27:38;;;;;;;;;16.33;16.33;;;;;;;;5004771;28;8883;-80
2021/01/24 03:30:07;;;;;;;;;16.67;13.67;;;;;;;;5004127;28;8876;-77
2021/01/24 03:32:34;;;;;;;;;14.33;14.33;;;;;;;;4987790;28;8879;-77
2021/01/24 03:35:01;;;;;;;;;14.33;13.67;;;;;;;;5004272;28;8868;-81
2021/01/24 03:37:27;;;;;;;;;15.33;15.33;;;;;;;;5006295;28;8915;-81
2021/01/24 03:39:55;;;;;;;;;20.67;20.67;;;;;;;;5002996;28;8894;-81
2021/01/24 03:42:21;;;;;;;;;15.33;15.33;;;;;;;;5003244;28;9646;-78
2021/01/24 03:44:48;;;;;;;;;17.67;16.67;;;;;;;;5001526;28;9269;-82
2021/01/24 03:47:15;;;;;;;;;16.00;16.00;;;;;;;;5004214;28;8875;-79
2021/01/24 03:49:42;;;;;;;;;19.67;19.67;;;;;;;;5003948;28;9011;-81
2021/01/24 03:52:08;;;;;;;;;11.33;11.33;;;;;;;;5000206;28;8911;-80
2021/01/24 03:54:35;;;;;;;;;18.00;18.00;;;;;;;;5004311;28;8883;-79
2021/01/24 03:57:03;;;;;;;;;18.67;18.67;;;;;;;;5003884;28;8902;-80
2021/01/24 03:59:30;;;;;;;;;12.33;12.33;;;;;;;;5004376;28;8952;-80
2021/01/24 04:01:56;;;;;;;;;15.33;15.33;;;;;;;;5002780;28;8818;-80
2021/01/24 04:04:23;;;;;;;;;25.33;21.67;;;;;;;;5002981;28;8848;-79
2021/01/24 04:06:54;;;;;;;;;19.67;19.67;;;;;;;;5004718;28;8864;-79
2021/01/24 04:09:21;;;;;;;;;21.00;19.00;;;;;;;;5001074;28;8896;-80
2021/01/24 04:11:48;;;;;;;;;13.00;13.00;;;;;;;;5004860;28;8934;-77
2021/01/24 04:14:15;;;;;;;;;15.33;15.33;;;;;;;;5003431;28;8978;-80
2021/01/24 04:16:42;;;;;;;;;15.67;15.67;;;;;;;;5002821;28;8852;-77
2021/01/24 04:19:09;;;;;;;;;14.33;14.33;;;;;;;;5005697;28;8998;-75
2021/01/24 04:21:36;;;;;;;;;19.67;19.67;;;;;;;;4998646;28;8899;-79
2021/01/24 04:24:03;;;;;;;;;20.00;16.67;;;;;;;;5005430;28;8890;-77
2021/01/24 04:26:29;;;;;;;;;15.67;15.33;;;;;;;;5003423;28;8888;-76
2021/01/24 04:28:56;;;;;;;;;16.00;16.00;;;;;;;;5003977;28;8898;-81
2021/01/24 04:31:24;;;;;;;;;22.33;19.33;;;;;;;;5002432;28;8812;-78
2021/01/24 04:33:50;;;;;;;;;15.33;15.33;;;;;;;;5003531;28;8875;-79
2021/01/24 04:36:17;;;;;;;;;22.00;17.33;;;;;;;;5003553;28;8879;-80
2021/01/24 04:38:44;;;;;;;;;18.00;18.00;;;;;;;;5003383;28;8867;-80
2021/01/24 04:41:10;;;;;;;;;15.00;15.00;;;;;;;;5003924;28;8886;-77
2021/01/24 04:43:37;;;;;;;;;13.00;13.00;;;;;;;;5003978;28;8875;-84
2021/01/24 04:46:04;;;;;;;;;11.67;11.67;;;;;;;;5013019;28;8882;-83
2021/01/24 04:48:32;;;;;;;;;15.00;15.00;;;;;;;;4985876;28;8898;-79
2021/01/24 04:50:59;;;;;;;;;13.00;13.00;;;;;;;;5007873;28;8880;-79
2021/01/24 04:53:26;;;;;;;;;12.67;12.67;;;;;;;;5001914;28;8917;-75
2021/01/24 04:55:53;;;;;;;;;16.67;16.67;;;;;;;;5002058;28;8927;-79
2021/01/24 04:58:20;;;;;;;;;17.33;17.33;;;;;;;;5000397;28;8902;-76
2021/01/24 05:00:47;;;;;;;;;9.33;9.33;;;;;;;;5001239;28;8844;-79
2021/01/24 05:03:14;;;;;;;;;18.67;18.67;;;;;;;;5000979;28;9022;-80
2021/01/24 05:05:41;;;;;;;;;14.33;14.33;;;;;;;;5002476;28;8884;-81
2021/01/24 05:08:11;;;;;;;;;15.67;15.67;;;;;;;;5003460;28;8910;-80
2021/01/24 05:10:38;;;;;;;;;16.00;16.00;;;;;;;;5002646;28;8863;-80
2021/01/24 05:13:05;;;;;;;;;18.67;16.67;;;;;;;;4998701;28;8856;-80
2021/01/24 05:15:32;;;;;;;;;16.67;15.00;;;;;;;;5002584;28;8914;-79
2021/01/24 05:18:00;;;;;;;;;14.33;14.33;;;;;;;;5003083;28;8872;-75
2021/01/24 05:20:29;;;;;;;;;13.67;13.67;;;;;;;;5003859;28;8860;-76
2021/01/24 05:22:59;;;;;;;;;15.33;15.33;;;;;;;;5001722;28;8875;-79
2021/01/24 05:25:29;;;;;;;;;16.67;16.67;;;;;;;;5003609;28;8914;-81
2021/01/24 05:27:56;;;;;;;;;12.00;12.00;;;;;;;;5002282;28;8896;-81
2021/01/24 05:30:31;;;;;;;;;11.33;11.33;;;;;;;;4986219;28;8795;-82
2021/01/24 05:33:00;;;;;;;;;11.33;11.33;;;;;;;;4997463;28;8916;-81
2021/01/24 05:35:28;;;;;;;;;12.67;10.00;;;;;;;;5000958;28;8895;-83
2021/01/24 05:37:56;;;;;;;;;11.67;11.67;;;;;;;;5001933;28;8868;-83
2021/01/24 05:40:23;;;;;;;;;32.33;27.67;;;;;;;;5002739;28;8884;-84
2021/01/24 05:42:50;;;;;;;;;16.00;16.00;;;;;;;;4969568;28;8962;-76
2021/01/24 05:45:18;;;;;;;;;10.00;10.00;;;;;;;;5002600;28;8872;-81
2021/01/24 05:47:46;;;;;;;;;10.67;10.67;;;;;;;;4984740;28;8868;-81
2021/01/24 05:50:14;;;;;;;;;14.33;14.33;;;;;;;;5003209;28;8876;-81
2021/01/24 05:52:42;;;;;;;;;15.00;15.00;;;;;;;;4998864;28;8915;-82
2021/01/24 05:55:11;;;;;;;;;14.33;14.33;;;;;;;;5003813;28;8872;-78
2021/01/24 05:57:39;;;;;;;;;10.00;10.00;;;;;;;;5002257;28;8914;-78
2021/01/24 06:00:08;;;;;;;;;7.67;7.67;;;;;;;;4985204;28;8890;-79
2021/01/24 06:02:37;;;;;;;;;10.67;10.67;;;;;;;;4984355;28;8931;-78
2021/01/24 06:05:05;;;;;;;;;13.00;13.00;;;;;;;;5002253;28;8888;-78
2021/01/24 06:07:35;;;;;;;;;12.67;12.67;;;;;;;;5003531;28;8876;-81
2021/01/24 06:10:02;;;;;;;;;12.67;12.67;;;;;;;;5008630;28;8882;-81
2021/01/24 06:12:30;;;;;;;;;13.00;12.00;;;;;;;;5002428;28;8915;-78
2021/01/24 06:15:02;;;;;;;;;10.67;10.67;;;;;;;;5001584;28;8883;-78
2021/01/24 06:17:30;;;;;;;;;12.00;12.00;;;;;;;;5003392;28;8887;-77
2021/01/24 06:19:59;;;;;;;;;12.00;12.00;;;;;;;;5002675;28;8880;-79
2021/01/24 06:22:38;;;;;;;;;14.33;14.33;;;;;;;;5001019;28;8868;-79
2021/01/24 06:25:11;;;;;;;;;16.00;15.00;;;;;;;;4982083;28;8830;-81
2021/01/24 06:27:43;;;;;;;;;15.33;13.67;;;;;;;;4985091;28;8930;-82
2021/01/24 06:30:13;;;;;;;;;14.33;14.33;;;;;;;;5003840;28;8903;-83
2021/01/24 06:32:40;;;;;;;;;13.00;13.00;;;;;;;;4999332;28;8880;-80
2021/01/24 06:35:26;;;;;;;;;15.67;15.67;;;;;;;;4998573;28;8941;-81
2021/01/24 06:37:58;;;;;;;;;12.00;12.00;;;;;;;;4995030;28;8899;-79
2021/01/24 06:40:28;;;;;;;;;15.33;15.33;;;;;;;;4986167;28;9032;-77
2021/01/24 06:42:58;;;;;;;;;13.00;13.00;;;;;;;;4966395;28;8899;-78
2021/01/24 06:45:41;;;;;;;;;10.67;10.67;;;;;;;;5007417;28;9747;-80
2021/01/24 06:48:08;;;;;;;;;11.33;11.33;;;;;;;;5000510;28;8886;-84
2021/01/24 06:50:42;;;;;;;;;7.67;7.67;;;;;;;;5005081;28;8990;-81
2021/01/24 06:53:10;;;;;;;;;13.67;13.67;;;;;;;;5011006;28;8884;-84
2021/01/24 06:55:38;;;;;;;;;12.00;12.00;;;;;;;;5007093;28;8888;-79
2021/01/24 06:58:29;;;;;;;;;13.00;13.00;;;;;;;;5005812;28;8911;-79
2021/01/24 07:01:24;;;;;;;;;10.67;10.00;;;;;;;;5007049;28;8804;-78
2021/01/24 07:04:42;;;;;;;;;9.00;9.00;;;;;;;;5004041;28;8910;-83
2021/01/24 07:07:32;;;;;;;;;15.00;12.00;;;;;;;;5002923;28;9710;-77
2021/01/24 07:09:59;;;;;;;;;10.67;10.67;;;;;;;;5005963;28;8914;-77
2021/01/24 07:12:45;;;;;;;;;10.33;10.33;;;;;;;;5005215;28;8871;-78
2021/01/24 07:15:21;;;;;;;;;7.67;7.67;;;;;;;;5004870;28;8886;-78
2021/01/24 07:17:59;;;;;;;;;10.67;10.67;;;;;;;;5015273;28;8861;-80
2021/01/24 07:20:26;;;;;;;;;12.67;12.67;;;;;;;;5004880;28;8940;-76
2021/01/24 07:22:55;;;;;;;;;9.67;9.67;;;;;;;;5005390;28;8900;-78
2021/01/24 07:25:23;;;;;;;;;28.00;28.00;;;;;;;;5002636;28;8868;-78
2021/01/24 07:27:53;;;;;;;;;44.33;42.67;;;;;;;;5002491;28;8879;-78
2021/01/24 07:30:26;;;;;;;;;51.33;47.33;;;;;;;;5005375;28;8893;-80
2021/01/24 07:32:53;;;;;;;;;54.00;49.00;;;;;;;;4987967;28;8938;-79
2021/01/24 07:35:21;;;;;;;;;57.50;48.75;;;;;;;;4995016;28;8866;-80
2021/01/24 07:37:52;;;;;;;;;52.00;48.00;;;;;;;;5010428;28;8892;-78
2021/01/24 07:40:22;;;;;;;;;48.75;47.50;;;;;;;;5006057;28;8888;-81
2021/01/24 07:42:50;;;;;;;;;6.33;6.33;;;;;;;;5001327;28;8896;-79
2021/01/24 07:45:17;;;;;;;;;21.33;21.33;;;;;;;;5004975;28;8876;-80
2021/01/24 07:47:45;;;;;;;;;16.00;16.00;;;;;;;;5001618;28;8877;-79
2021/01/24 07:50:13;;;;;;;;;29.67;29.67;;;;;;;;4984912;28;8904;-79
2021/01/24 07:52:40;;;;;;;;;32.33;31.67;;;;;;;;5005152;28;8884;-77
2021/01/24 07:55:09;;;;;;;;;35.00;35.00;;;;;;;;5004614;28;8883;-78
2021/01/24 07:57:36;;;;;;;;;46.33;43.33;;;;;;;;5002831;28;9634;-81
2021/01/24 08:00:05;;;;;;;;;43.00;42.67;;;;;;;;4986704;28;8867;-79
2021/01/24 08:02:32;;;;;;;;;50.00;48.00;;;;;;;;5003836;28;8852;-78
2021/01/24 08:05:01;;;;;;;;;47.00;44.50;;;;;;;;5002635;28;8880;-70
2021/01/24 08:07:29;;;;;;;;;43.00;41.00;;;;;;;;5004225;28;8887;-71
2021/01/24 08:09:57;;;;;;;;;46.33;41.33;;;;;;;;5002750;28;8874;-70
2021/01/24 08:12:25;;;;;;;;;41.00;41.00;;;;;;;;5002907;28;9634;-71
2021/01/24 08:14:53;;;;;;;;;45.67;43.67;;;;;;;;5003315;28;8906;-71
2021/01/24 08:17:23;;;;;;;;;57.50;49.00;;;;;;;;5002927;28;8872;-70
2021/01/24 08:19:50;;;;;;;;;52.00;45.50;;;;;;;;5000928;28;8891;-71
2021/01/24 08:22:23;;;;;;;;;35.67;35.67;;;;;;;;5004025;28;8860;-71
2021/01/24 08:24:50;;;;;;;;;40.33;39.33;;;;;;;;5002831;28;8981;-70
2021/01/24 08:27:17;;;;;;;;;33.33;33.33;;;;;;;;5002122;28;9741;-71
2021/01/24 08:29:45;;;;;;;;;55.67;48.33;;;;;;;;5002680;28;8859;-70
2021/01/24 08:32:12;;;;;;;;;63.00;52.00;;;;;;;;4998958;28;8827;-71
2021/01/24 08:34:38;;;;;;;;;47.00;46.00;;;;;;;;4998304;28;8883;-70
2021/01/24 08:37:05;;;;;;;;;51.33;46.67;;;;;;;;5000078;28;8907;-71
2021/01/24 08:39:34;;;;;;;;;46.00;45.00;;;;;;;;5001751;28;8864;-71
2021/01/24 08:42:04;;;;;;;;;38.67;38.67;;;;;;;;5002910;28;8914;-72
2021/01/24 08:44:31;;;;;;;;;107.50;85.50;;;;;;;;5003537;28;9661;-71
2021/01/24 08:47:03;;;;;;;;;34.00;34.00;;;;;;;;5002278;28;8876;-70
2021/01/24 08:49:31;;;;;;;;;26.33;26.33;;;;;;;;5003737;28;8885;-71
2021/01/24 08:51:59;;;;;;;;;21.67;21.67;;;;;;;;5002106;28;8903;-70
2021/01/24 08:54:28;;;;;;;;;22.00;18.33;;;;;;;;5002992;28;9750;-71
2021/01/24 08:57:13;;;;;;;;;15.00;15.00;;;;;;;;4999278;28;8951;-71
2021/01/24 08:59:41;;;;;;;;;17.33;17.33;;;;;;;;5002960;28;9642;-71
2021/01/24 09:02:08;;;;;;;;;21.00;21.00;;;;;;;;5001474;28;8844;-71
2021/01/24 09:04:44;;;;;;;;;19.67;19.67;;;;;;;;5001579;28;8896;-70
2021/01/24 09:07:13;;;;;;;;;13.00;13.00;;;;;;;;4997043;28;8880;-70
2021/01/24 09:09:42;;;;;;;;;10.67;10.67;;;;;;;;5000703;28;8855;-72
2021/01/24 09:12:15;;;;;;;;;13.00;13.00;;;;;;;;4997035;28;8887;-72
2021/01/24 09:14:43;;;;;;;;;15.00;15.00;;;;;;;;4988930;28;8874;-71
2021/01/24 09:17:11;;;;;;;;;14.33;14.33;;;;;;;;4997698;28;8872;-71
2021/01/24 09:19:40;;;;;;;;;14.33;14.33;;;;;;;;5003972;28;8872;-71
2021/01/24 09:22:08;;;;;;;;;17.33;17.33;;;;;;;;5002510;28;8880;-72
2021/01/24 09:24:36;;;;;;;;;18.00;18.00;;;;;;;;5003662;28;8880;-71
2021/01/24 09:27:04;;;;;;;;;18.33;18.33;;;;;;;;4987741;28;8891;-72
2021/01/24 09:29:32;;;;;;;;;15.00;15.00;;;;;;;;5002794;28;8982;-72
2021/01/24 09:31:59;;;;;;;;;12.00;12.00;;;;;;;;5002563;28;8805;-72
2021/01/24 09:34:26;;;;;;;;;10.67;10.67;;;;;;;;5001410;28;8884;-71
2021/01/24 09:36:53;;;;;;;;;11.33;11.33;;;;;;;;5000408;28;8891;-72
2021/01/24 09:39:20;;;;;;;;;12.67;12.67;;;;;;;;5002654;28;9662;-70
2021/01/24 09:41:47;;;;;;;;;19.67;19.67;;;;;;;;4994570;28;8973;-71
2021/01/24 09:44:14;;;;;;;;;12.00;12.00;;;;;;;;5001982;28;9010;-71
2021/01/24 09:46:42;;;;;;;;;17.33;17.33;;;;;;;;5001578;28;8947;-71
2021/01/24 09:49:09;;;;;;;;;12.00;12.00;;;;;;;;4981685;28;8872;-72
2021/01/24 09:51:36;;;;;;;;;16.67;16.67;;;;;;;;5002068;28;8868;-71
2021/01/24 09:54:03;;;;;;;;;15.33;15.33;;;;;;;;5003198;28;8895;-71
2021/01/24 09:56:29;;;;;;;;;18.33;18.33;;;;;;;;5002653;28;8871;-71
2021/01/24 09:58:57;;;;;;;;;15.33;15.33;;;;;;;;5010506;28;8916;-71
2021/01/24 10:01:24;;;;;;;;;13.00;13.00;;;;;;;;4988435;28;8818;-71
2021/01/24 10:03:53;;;;;;;;;22.00;21.00;;;;;;;;5009574;28;8903;-71
2021/01/24 10:06:21;;;;;;;;;16.67;16.67;;;;;;;;5001074;28;8942;-71
2021/01/24 10:08:48;;;;;;;;;26.33;25.67;;;;;;;;5004518;28;8888;-70
2021/01/24 10:11:14;;;;;;;;;33.33;32.67;;;;;;;;4999739;28;8946;-72
2021/01/24 10:13:41;;;;;;;;;43.00;41.33;;;;;;;;5003655;28;8883;-71
2021/01/24 10:16:08;;;;;;;;;37.00;37.00;;;;;;;;5007444;28;8902;-71
2021/01/24 10:18:35;;;;;;;;;40.33;39.33;;;;;;;;5005549;28;9014;-71
2021/01/24 10:21:03;;;;;;;;;32.67;31.67;;;;;;;;5005686;28;8876;-71
2021/01/24 10:23:30;;;;;;;;;40.00;35.33;;;;;;;;5005776;28;8880;-70
2021/01/24 10:25:57;;;;;;;;;26.33;26.33;;;;;;;;5006972;28;8917;-71
2021/01/24 10:28:24;;;;;;;;;40.00;32.33;;;;;;;;5006563;28;8876;-71
2021/01/24 10:30:51;;;;;;;;;25.33;25.33;;;;;;;;4999288;28;8904;-71
2021/01/24 10:33:18;;;;;;;;;22.33;22.33;;;;;;;;5003834;28;9446;-71
2021/01/24 10:35:45;;;;;;;;;12.33;12.33;;;;;;;;5006016;28;8896;-71
2021/01/24 10:38:14;;;;;;;;;19.67;16.00;;;;;;;;5015591;28;11689;-71
2021/01/24 10:40:41;;;;;;;;;16.67;13.00;;;;;;;;5000905;28;11710;-71
2021/01/24 10:43:08;;;;;;;;;14.33;10.00;;;;;;;;5003934;28;11632;-71
2021/01/24 10:45:38;;;;;;;;;15.67;11.33;;;;;;;;5003574;28;11627;-71
2021/01/24 10:48:07;;;;;;;;;19.00;16.67;;;;;;;;5004455;28;11642;-71
2021/01/24 10:50:36;;;;;;;;;10.00;10.00;;;;;;;;5006013;28;11637;-71
2021/01/24 10:53:04;;;;;;;;;16.00;16.00;;;;;;;;5003809;28;11636;-72
2021/01/24 10:55:32;;;;;;;;;17.33;13.33;;;;;;;;5006065;28;11658;-71
2021/01/24 10:58:00;;;;;;;;;16.67;11.33;;;;;;;;5004867;28;12513;-71
2021/01/24 11:00:27;;;;;;;;;11.00;8.67;;;;;;;;5003649;28;11620;-71
2021/01/24 11:02:54;;;;;;;;;14.00;10.00;;;;;;;;5001536;28;11619;-72
2021/01/24 11:05:21;;;;;;;;;15.25;13.50;;;;;;;;4995649;28;11758;-71
2021/01/24 11:07:48;;;;;;;;;13.00;13.00;;;;;;;;5002382;28;11747;-71
2021/01/24 11:10:15;;;;;;;;;16.25;10.50;;;;;;;;4980435;28;12404;-69
2021/01/24 11:12:43;;;;;;;;;9.00;9.00;;;;;;;;5001547;28;11655;-71
2021/01/24 11:15:11;;;;;;;;;10.75;10.75;;;;;;;;5002727;28;11667;-70
2021/01/24 11:17:39;;;;;;;;;5.00;5.00;;;;;;;;5005330;28;11620;-70
2021/01/24 11:20:08;;;;;;;;;4.00;2.00;;;;;;;;5003043;28;11646;-69
2021/01/24 11:22:35;;;;;;;;;6.50;6.50;;;;;;;;5004412;28;12357;-71
2021/01/24 11:25:02;;;;;;;;;11.00;11.00;;;;;;;;5004562;28;11631;-71
2021/01/24 11:27:29;;;;;;;;;8.50;8.50;;;;;;;;5003685;28;11633;-70
2021/01/24 11:29:57;;;;;;;;;9.25;8.50;;;;;;;;5003553;28;11603;-71
2021/01/24 11:32:23;;;;;;;;;8.50;8.50;;;;;;;;5002119;28;11555;-72
2021/01/24 11:34:50;;;;;;;;;10.50;7.00;;;;;;;;5002449;28;11611;-70
2021/01/24 11:37:17;;;;;;;;;8.50;8.50;;;;;;;;5004055;28;11589;-73
2021/01/24 11:39:44;;;;;;;;;12.75;7.50;;;;;;;;5000049;28;11720;-71
2021/01/24 11:42:11;;;;;;;;;16.00;10.50;;;;;;;;5004479;28;12386;-72
2021/01/24 11:44:38;;;;;;;;;9.00;9.00;;;;;;;;4996176;28;11616;-71
2021/01/24 11:47:05;;;;;;;;;11.75;11.00;;;;;;;;5006452;28;11603;-71
2021/01/24 11:49:32;;;;;;;;;7.75;6.00;;;;;;;;5001460;28;12421;-71
2021/01/24 11:51:59;;;;;;;;;11.50;11.50;;;;;;;;5003538;28;11573;-71
2021/01/24 11:54:26;;;;;;;;;8.50;8.50;;;;;;;;5001355;28;11607;-72
2021/01/24 11:56:52;;;;;;;;;10.75;9.50;;;;;;;;5004566;28;11604;-71
2021/01/24 11:59:19;;;;;;;;;7.75;7.75;;;;;;;;5003339;28;11656;-70
2021/01/24 12:01:46;;;;;;;;;7.25;5.50;;;;;;;;4995612;28;12452;-71
2021/01/24 12:04:13;;;;;;;;;7.75;7.00;;;;;;;;5000263;28;11596;-71
2021/01/24 12:06:40;;;;;;;;;7.25;7.25;;;;;;;;4999421;28;11606;-71
2021/01/24 12:09:07;;;;;;;;;13.50;10.75;;;;;;;;5007015;28;11593;-71
2021/01/24 12:11:35;;;;;;;;;4.75;4.75;;;;;;;;5003451;28;11597;-73
2021/01/24 12:14:02;;;;;;;;;5.50;5.50;;;;;;;;4985988;28;12583;-71
2021/01/24 12:16:29;;;;;;;;;8.50;7.00;;;;;;;;4990622;28;11703;-71
2021/01/24 12:18:56;;;;;;;;;4.00;4.00;;;;;;;;4975214;28;11701;-72
2021/01/24 12:21:24;;;;;;;;;7.00;7.00;;;;;;;;4999376;28;11602;-73
2021/01/24 12:23:51;;;;;;;;;5.00;5.00;;;;;;;;4980817;28;11598;-71
2021/01/24 12:26:18;;;;;;;;;1.50;1.50;;;;;;;;4985646;28;11599;-71
2021/01/24 12:28:44;;;;;;;;;5.00;5.00;;;;;;;;5000729;28;11574;-70
2021/01/24 12:31:11;;;;;;;;;4.75;4.75;;;;;;;;5001086;28;11526;-70
2021/01/24 12:33:38;;;;;;;;;5.00;5.00;;;;;;;;5001934;28;11622;-71
2021/01/24 12:36:06;;;;;;;;;7.50;7.50;;;;;;;;4982035;28;11575;-71
2021/01/24 12:38:33;;;;;;;;;5.00;5.00;;;;;;;;5003304;28;11572;-70
2021/01/24 12:41:00;;;;;;;;;9.50;6.00;;;;;;;;5000223;28;11674;-69
2021/01/24 12:43:28;;;;;;;;;6.00;6.00;;;;;;;;5002120;28;11629;-69
2021/01/24 12:45:54;;;;;;;;;5.00;5.00;;;;;;;;4999194;28;11710;-69
2021/01/24 12:48:21;;;;;;;;;7.00;7.00;;;;;;;;4999509;28;12348;-70
2021/01/24 12:50:48;;;;;;;;;11.25;10.00;;;;;;;;5001461;28;11638;-70
2021/01/24 12:53:15;;;;;;;;;7.50;4.75;;;;;;;;4997754;28;11633;-71
2021/01/24 12:55:43;;;;;;;;;5.00;5.00;;;;;;;;5002977;28;11585;-70
2021/01/24 12:58:09;;;;;;;;;7.00;7.00;;;;;;;;5003240;28;11619;-70
2021/01/24 13:00:36;;;;;;;;;14.00;12.00;;;;;;;;5009345;28;11688;-72
2021/01/24 13:03:04;;;;;;;;;5.50;5.50;;;;;;;;5006138;28;11743;-70
2021/01/24 13:05:30;;;;;;;;;11.50;7.75;;;;;;;;5011310;28;11640;-73
2021/01/24 13:08:01;;;;;;;;;8.00;8.00;;;;;;;;4994613;28;11594;-72
2021/01/24 13:10:27;;;;;;;;;11.33;9.00;;;;;;;;5008556;28;11616;-73
2021/01/24 13:12:55;;;;;;;;;13.33;11.00;;;;;;;;5005064;28;11736;-70
2021/01/24 13:15:22;;;;;;;;;9.33;9.33;;;;;;;;5002968;28;11628;-71
2021/01/24 13:17:49;;;;;;;;;10.00;10.00;;;;;;;;5000836;28;11749;-71
2021/01/24 13:20:16;;;;;;;;;13.00;13.00;;;;;;;;5003520;28;11627;-72
2021/01/24 13:22:42;;;;;;;;;12.00;9.00;;;;;;;;4991314;28;11660;-69
2021/01/24 13:25:10;;;;;;;;;16.00;15.67;;;;;;;;4998039;28;11622;-71
2021/01/24 13:27:37;;;;;;;;;23.67;23.00;;;;;;;;4998235;28;8883;-72
2021/01/24 13:30:06;;;;;;;;;15.00;15.00;;;;;;;;4998657;28;8886;-70
2021/01/24 13:32:33;;;;;;;;;13.00;13.00;;;;;;;;4997288;28;8898;-70
2021/01/24 13:35:00;;;;;;;;;9.00;9.00;;;;;;;;4979600;28;8888;-70
2021/01/24 13:37:27;;;;;;;;;11.67;11.67;;;;;;;;4999556;28;11591;-71
2021/01/24 13:39:54;;;;;;;;;14.33;12.00;;;;;;;;5003111;28;11644;-71
2021/01/24 13:42:21;;;;;;;;;21.67;21.67;;;;;;;;5000940;28;11644;-71
2021/01/24 13:44:48;;;;;;;;;9.33;9.33;;;;;;;;4999805;28;8904;-72
2021/01/24 13:47:16;;;;;;;;;9.33;9.33;;;;;;;;5001889;28;8883;-70
2021/01/24 13:49:43;;;;;;;;;12.00;12.00;;;;;;;;5001032;28;11637;-72
2021/01/24 13:52:10;;;;;;;;;12.33;12.33;;;;;;;;5002097;28;8875;-71
2021/01/24 13:54:38;;;;;;;;;16.67;16.67;;;;;;;;4999737;28;8913;-72
2021/01/24 13:57:05;;;;;;;;;12.33;12.33;;;;;;;;5007440;28;9642;-72
2021/01/24 13:59:32;;;;;;;;;13.67;12.33;;;;;;;;4999986;28;8978;-69
2021/01/24 14:01:59;;;;;;;;;14.33;14.33;;;;;;;;5004584;28;8856;-73
2021/01/24 14:04:27;;;;;;;;;16.00;16.00;;;;;;;;4996636;28;8870;-71
2021/01/24 14:06:54;;;;;;;;;12.00;12.00;;;;;;;;4981594;28;8899;-72
2021/01/24 14:09:21;;;;;;;;;20.67;15.00;;;;;;;;5008318;28;8894;-70
2021/01/24 14:11:48;;;;;;;;;18.00;16.00;;;;;;;;5007106;28;8879;-69
2021/01/24 14:14:15;;;;;;;;;10.00;10.00;;;;;;;;5007873;28;11661;-69
2021/01/24 14:16:42;;;;;;;;;7.00;7.00;;;;;;;;5006453;28;8872;-71
2021/01/24 14:19:10;;;;;;;;;9.33;9.33;;;;;;;;4999486;28;12438;-72
2021/01/24 14:21:37;;;;;;;;;6.00;6.00;;;;;;;;4983109;28;11594;-70
2021/01/24 14:24:05;;;;;;;;;9.00;9.00;;;;;;;;5006069;28;11641;-70
2021/01/24 14:26:33;;;;;;;;;11.33;11.33;;;;;;;;4999630;28;11591;-68
2021/01/24 14:28:59;;;;;;;;;11.33;11.33;;;;;;;;4988855;28;8874;-69
2021/01/24 14:31:27;;;;;;;;;13.33;12.00;;;;;;;;5003994;28;8905;-72
2021/01/24 14:33:54;;;;;;;;;13.00;10.00;;;;;;;;4998656;28;8888;-70
2021/01/24 14:36:20;;;;;;;;;11.33;11.33;;;;;;;;4999279;28;11635;-70